Time;durP1;ratioP1;P1;durP2;ratioP2;P2;SDS_P1;SDS_P2;PMS_P1;PMS_P2;Temp;Humidity;BMP_temperature;BMP_pressure;BME280_temperature;BME280_humidity;BME280_pressure;Samples;Min_cycle;Max_cycle;Signal;HPM_P1;HPM_P2
2023/01/29 00:02:16;;;;;;;6.18;4.15;;;14.50;67.40;;;;;;4190830;28;20078;-61
2023/01/29 00:04:58;;;;;;;5.03;4.13;;;14.50;67.20;;;;;;4191701;28;20442;-61
2023/01/29 00:07:52;;;;;;;9.20;3.70;;;14.60;67.30;;;;;;4191809;28;20055;-61
2023/01/29 00:10:33;;;;;;;4.43;3.97;;;14.60;67.10;;;;;;4179039;28;20134;-61
2023/01/29 00:13:16;;;;;;;5.28;4.00;;;14.70;66.90;;;;;;4191049;28;20040;-61
2023/01/29 00:15:57;;;;;;;4.30;3.63;;;14.80;66.60;;;;;;4175433;28;20590;-61
2023/01/29 00:18:39;;;;;;;4.10;3.70;;;14.80;66.40;;;;;;4175063;28;20052;-61
2023/01/29 00:21:21;;;;;;;5.10;3.78;;;14.90;66.40;;;;;;4177174;28;20487;-61
2023/01/29 00:24:03;;;;;;;5.97;3.63;;;14.90;66.20;;;;;;4177581;28;20064;-61
2023/01/29 00:26:43;;;;;;;4.28;3.88;;;14.90;66.10;;;;;;4177925;28;20059;-62
2023/01/29 00:29:25;;;;;;;3.90;3.60;;;14.90;66.10;;;;;;4178076;28;20047;-61
2023/01/29 00:32:07;;;;;;;4.82;4.10;;;14.90;66.10;;;;;;4178367;28;20291;-61
2023/01/29 00:34:50;;;;;;;5.13;4.07;;;14.80;66.00;;;;;;4178319;28;20179;-61
2023/01/29 00:37:31;;;;;;;5.30;4.07;;;14.80;67.10;;;;;;4176836;28;20064;-61
2023/01/29 00:40:12;;;;;;;4.75;4.22;;;14.80;66.40;;;;;;4176907;28;20047;-61
2023/01/29 00:45:53;;;;;;;5.43;4.65;;;14.80;66.60;;;;;;4151502;28;20056;-61
2023/01/29 00:48:34;;;;;;;7.22;4.97;;;14.90;66.40;;;;;;4192015;28;20055;-61
2023/01/29 00:51:15;;;;;;;6.43;4.82;;;14.90;66.30;;;;;;4166257;28;20454;-62
2023/01/29 00:53:57;;;;;;;6.93;5.15;;;15.00;66.20;;;;;;4193930;28;20403;-62
2023/01/29 00:56:38;;;;;;;4.78;4.28;;;15.00;65.90;;;;;;4193531;28;20126;-62
2023/01/29 00:59:19;;;;;;;5.97;4.80;;;15.10;65.80;;;;;;4177534;28;20060;-61
2023/01/29 01:05:02;;;;;;;5.75;4.78;;;15.10;66.70;;;;;;4181341;28;20074;-61
2023/01/29 01:07:44;;;;;;;7.00;4.80;;;15.10;66.00;;;;;;4193839;28;20133;-62
2023/01/29 01:10:27;;;;;;;6.22;5.35;;;15.20;65.70;;;;;;4176754;28;20057;-62
2023/01/29 01:13:08;;;;;;;7.53;5.80;;;15.20;65.30;;;;;;4185708;28;20399;-62
2023/01/29 01:15:49;;;;;;;6.90;5.07;;;15.20;65.20;;;;;;4193937;28;20509;-62
2023/01/29 01:18:32;;;;;;;8.40;6.00;;;15.20;65.30;;;;;;4194057;28;20118;-61
2023/01/29 01:21:13;;;;;;;6.88;5.63;;;15.20;65.30;;;;;;4181550;28;20051;-61
2023/01/29 01:23:53;;;;;;;6.68;5.90;;;15.20;65.50;;;;;;4193761;28;20051;-61
2023/01/29 01:26:35;;;;;;;6.05;5.45;;;15.20;65.80;;;;;;4192556;28;20719;-61
2023/01/29 01:29:15;;;;;;;7.28;6.45;;;15.20;65.60;;;;;;4192124;28;20052;-61
2023/01/29 01:31:56;;;;;;;;;;;15.30;65.30;;;;;;4176391;28;20176;-60
2023/01/29 01:34:39;;;;;;;13.15;6.55;;;15.30;65.20;;;;;;4193764;28;19931;-62
2023/01/29 01:37:19;;;;;;;7.78;6.43;;;15.30;65.30;;;;;;4188909;28;20502;-61
2023/01/29 01:40:02;;;;;;;9.38;6.45;;;15.30;65.20;;;;;;4191994;28;20056;-62
2023/01/29 01:42:43;;;;;;;9.52;6.40;;;15.30;65.10;;;;;;4180969;28;20490;-61
2023/01/29 01:45:27;;;;;;;8.90;7.40;;;15.40;65.10;;;;;;4180475;28;20064;-61
2023/01/29 01:48:12;;;;;;;9.48;6.97;;;15.30;65.10;;;;;;4192815;28;20561;-62
2023/01/29 01:50:59;;;;;;;7.45;6.43;;;15.20;65.20;;;;;;4192668;28;20055;-61
2023/01/29 01:53:44;;;;;;;9.38;6.93;;;15.20;66.30;;;;;;4190808;28;20186;-61
2023/01/29 01:56:39;;;;;;;8.65;6.60;;;15.20;65.70;;;;;;4188539;28;20072;-61
2023/01/29 01:59:21;;;;;;;11.00;7.07;;;15.30;65.60;;;;;;4190994;28;20056;-62
2023/01/29 02:11:00;;;;;;;9.23;7.78;;;15.50;64.80;;;;;;4191644;28;20051;-61
2023/01/29 02:13:41;;;;;;;7.60;6.78;;;15.60;64.60;;;;;;4193176;28;20186;-61
2023/01/29 02:16:23;;;;;;;;;;;15.60;64.40;;;;;;4176010;28;20060;-62
2023/01/29 02:19:07;;;;;;;10.63;7.25;;;15.60;64.50;;;;;;4192838;28;19931;-62
2023/01/29 02:22:29;;;;;;;8.32;7.53;;;15.70;64.50;;;;;;4175903;28;20063;-62
2023/01/29 02:25:33;;;;;;;8.75;7.30;;;15.60;64.10;;;;;;4191657;28;20109;-61
2023/01/29 02:28:30;;;;;;;13.88;8.15;;;15.70;64.10;;;;;;4191608;28;20048;-62
2023/01/29 02:31:21;;;;;;;9.85;7.95;;;15.70;64.10;;;;;;4192557;28;20392;-61
2023/01/29 02:34:11;;;;;;;12.10;8.30;;;15.80;64.00;;;;;;4190829;28;20384;-61
2023/01/29 02:37:02;;;;;;;10.30;8.73;;;15.80;63.90;;;;;;4192885;28;20055;-62
2023/01/29 02:39:48;;;;;;;10.52;7.60;;;15.80;63.90;;;;;;4191297;28;20649;-61
2023/01/29 02:42:37;;;;;;;9.65;8.65;;;15.80;64.00;;;;;;4192685;28;20101;-62
2023/01/29 02:45:28;;;;;;;12.18;8.45;;;15.70;64.10;;;;;;4161989;28;20056;-61
2023/01/29 02:48:14;;;;;;;9.10;8.25;;;15.60;64.20;;;;;;4176970;28;20052;-62
2023/01/29 02:50:58;;;;;;;9.90;8.90;;;15.60;64.50;;;;;;4192366;28;20506;-61
2023/01/29 02:53:50;;;;;;;10.88;9.07;;;15.60;64.60;;;;;;4179464;28;20494;-61
2023/01/29 02:56:37;;;;;;;11.25;9.55;;;15.70;64.60;;;;;;4192209;28;20122;-61
2023/01/29 02:59:22;;;;;;;10.13;8.98;;;15.70;64.40;;;;;;4187799;28;20047;-61
2023/01/29 03:02:10;;;;;;;9.93;8.88;;;15.70;64.20;;;;;;4178706;28;20175;-61
2023/01/29 03:04:57;;;;;;;10.80;8.30;;;15.70;64.40;;;;;;4179059;28;20051;-61
2023/01/29 03:07:45;;;;;;;11.40;9.13;;;15.70;64.60;;;;;;4146597;28;20056;-62
2023/01/29 03:10:39;;;;;;;11.38;9.75;;;15.70;64.50;;;;;;4158593;28;20071;-62
2023/01/29 03:13:27;;;;;;;16.08;11.15;;;15.70;64.30;;;;;;4175966;28;20146;-62
2023/01/29 03:16:17;;;;;;;12.75;10.40;;;15.70;64.20;;;;;;4179787;28;20047;-62
2023/01/29 03:19:05;;;;;;;11.60;10.40;;;15.70;64.10;;;;;;4192198;28;20552;-62
2023/01/29 03:21:52;;;;;;;12.43;10.25;;;15.70;64.50;;;;;;4164296;28;20101;-62
2023/01/29 03:34:05;;;;;;;11.52;10.32;;;15.90;63.80;;;;;;4189737;28;20502;-61
2023/01/29 03:36:54;;;;;;;11.50;10.38;;;15.90;63.60;;;;;;4191467;28;20218;-62
2023/01/29 03:39:36;;;;;;;14.73;11.15;;;15.90;63.70;;;;;;4174848;28;20043;-61
2023/01/29 03:42:24;;;;;;;15.50;9.82;;;15.80;64.00;;;;;;4174284;28;20082;-61
2023/01/29 03:45:11;;;;;;;12.13;10.82;;;15.80;64.20;;;;;;4175699;28;20507;-61
2023/01/29 03:48:05;;;;;;;11.75;10.32;;;15.80;64.20;;;;;;4174581;28;20051;-61
2023/01/29 03:50:54;;;;;;;10.82;9.05;;;15.80;63.90;;;;;;4175816;28;20059;-61
2023/01/29 03:53:43;;;;;;;10.98;9.88;;;15.90;63.90;;;;;;4190816;28;20043;-61
2023/01/29 03:56:39;;;;;;;12.45;10.27;;;15.80;63.80;;;;;;4177510;28;20051;-64
2023/01/29 03:59:28;;;;;;;12.13;9.40;;;15.80;63.90;;;;;;4188260;28;20183;-64
2023/01/29 04:02:50;;;;;;;10.93;9.65;;;15.70;64.30;;;;;;4146907;28;20741;-64
2023/01/29 04:05:37;;;;;;;11.50;10.23;;;15.80;64.30;;;;;;4193435;28;20044;-63
2023/01/29 04:08:29;;;;;;;11.35;10.15;;;15.80;64.20;;;;;;4193386;28;20051;-63
2023/01/29 04:11:16;;;;;;;13.20;10.57;;;15.80;64.20;;;;;;4193783;28;20064;-64
2023/01/29 04:13:58;;;;;;;11.15;10.02;;;15.80;64.20;;;;;;4195013;28;20060;-64
2023/01/29 04:16:44;;;;;;;14.07;10.55;;;15.80;64.50;;;;;;4204943;28;20178;-64
2023/01/29 04:19:42;;;;;;;15.43;10.43;;;15.70;64.40;;;;;;4193831;28;20051;-64
2023/01/29 04:22:28;;;;;;;13.70;10.77;;;15.70;64.80;;;;;;4193776;28;20055;-64
2023/01/29 04:25:14;;;;;;;12.90;11.07;;;15.70;64.90;;;;;;4193576;28;20601;-63
2023/01/29 04:28:05;;;;;;;13.07;11.68;;;15.70;64.70;;;;;;4205507;28;20050;-64
2023/01/29 04:30:54;;;;;;;14.32;11.30;;;15.80;65.50;;;;;;4205307;28;21773;-64
2023/01/29 04:33:39;;;;;;;14.25;11.98;;;15.80;64.50;;;;;;4193965;28;20158;-64
2023/01/29 04:36:33;;;;;;;15.90;12.75;;;15.80;64.30;;;;;;4193092;28;20182;-64
2023/01/29 04:39:20;;;;;;;14.10;12.20;;;15.90;64.20;;;;;;4193866;28;20055;-64
2023/01/29 04:42:10;;;;;;;14.30;12.45;;;15.80;64.10;;;;;;4194600;28;20109;-64
2023/01/29 04:44:59;;;;;;;14.38;12.05;;;15.80;64.30;;;;;;4193686;28;20043;-65
2023/01/29 04:47:50;;;;;;;13.77;12.38;;;15.90;64.50;;;;;;4193857;28;20052;-64
2023/01/29 04:50:38;;;;;;;12.55;11.27;;;15.90;64.20;;;;;;4179168;28;20051;-64
2023/01/29 04:53:27;;;;;;;12.00;10.80;;;16.00;64.10;;;;;;4194415;28;20062;-64
2023/01/29 04:56:17;;;;;;;12.93;11.30;;;16.00;63.90;;;;;;4194295;28;20047;-64
2023/01/29 04:59:02;;;;;;;12.50;11.20;;;16.00;64.00;;;;;;4184936;28;20117;-64
2023/01/29 05:01:44;;;;;;;12.35;11.10;;;16.00;64.10;;;;;;4194333;28;20170;-64
2023/01/29 05:04:25;;;;;;;;;;;16.00;64.10;;;;;;4194648;28;20051;-64
2023/01/29 05:07:10;;;;;;;11.67;10.43;;;16.00;64.10;;;;;;4193912;28;19931;-65
2023/01/29 05:09:51;;;;;;;14.88;11.50;;;15.90;64.10;;;;;;4193565;28;20297;-64
2023/01/29 05:12:33;;;;;;;12.90;11.48;;;15.90;64.30;;;;;;4178167;28;20503;-64
2023/01/29 05:15:19;;;;;;;16.00;10.98;;;15.90;64.30;;;;;;4193868;28;20117;-64
2023/01/29 05:18:01;;;;;;;15.70;11.38;;;15.90;64.30;;;;;;4194140;28;20500;-64
2023/01/29 05:20:44;;;;;;;13.13;11.73;;;15.80;64.40;;;;;;4193934;28;20141;-64
2023/01/29 05:23:24;;;;;;;11.82;10.63;;;15.80;64.50;;;;;;4193823;28;20062;-64
2023/01/29 05:26:06;;;;;;;12.85;11.52;;;15.90;64.50;;;;;;4165927;28;20063;-64
2023/01/29 05:28:45;;;;;;;13.05;11.63;;;15.90;64.30;;;;;;4193548;28;20059;-64
2023/01/29 05:31:27;;;;;;;15.43;12.10;;;15.90;64.20;;;;;;4194005;28;20058;-65
2023/01/29 05:34:09;;;;;;;13.45;11.73;;;15.90;64.30;;;;;;4176729;28;20047;-64
2023/01/29 05:36:50;;;;;;;12.82;11.52;;;15.80;64.50;;;;;;4192243;28;20620;-65
2023/01/29 05:39:31;;;;;;;13.20;11.32;;;15.90;64.60;;;;;;4193099;28;20067;-64
2023/01/29 05:42:11;;;;;;;13.50;11.73;;;15.90;64.40;;;;;;4190869;28;20514;-64
2023/01/29 05:44:53;;;;;;;13.48;10.80;;;16.00;64.30;;;;;;4193161;28;20055;-66
2023/01/29 05:47:35;;;;;;;15.00;11.95;;;16.00;64.20;;;;;;4192985;28;20404;-64
2023/01/29 05:50:16;;;;;;;12.95;11.32;;;15.90;64.10;;;;;;4193831;28;20055;-64
2023/01/29 05:52:58;;;;;;;13.18;11.77;;;15.90;64.30;;;;;;4193177;28;20509;-64
2023/01/29 05:55:40;;;;;;;13.77;12.30;;;15.90;64.20;;;;;;4193528;28;20106;-64
2023/01/29 05:58:20;;;;;;;13.10;11.73;;;15.90;64.20;;;;;;4193375;28;20070;-64
2023/01/29 06:01:09;;;;;;;15.90;12.25;;;15.90;64.20;;;;;;4190618;28;20147;-64
2023/01/29 06:03:52;;;;;;;13.05;11.65;;;15.90;64.20;;;;;;4176566;28;20134;-64
2023/01/29 06:06:33;;;;;;;14.82;11.70;;;15.80;64.30;;;;;;4191017;28;20078;-64
2023/01/29 06:09:13;;;;;;;14.67;12.20;;;15.80;64.60;;;;;;4193174;28;20044;-64
2023/01/29 06:11:54;;;;;;;15.23;12.27;;;15.70;64.90;;;;;;4192707;28;20809;-63
2023/01/29 06:14:35;;;;;;;14.95;12.68;;;15.80;64.60;;;;;;4175852;28;20055;-64
2023/01/29 06:17:16;;;;;;;14.02;12.25;;;15.80;64.80;;;;;;4190105;28;20071;-64
2023/01/29 06:19:58;;;;;;;13.43;12.03;;;15.80;64.70;;;;;;4192439;28;20498;-64
2023/01/29 06:22:39;;;;;;;15.88;12.07;;;15.80;64.60;;;;;;4177078;28;20380;-64
2023/01/29 06:25:20;;;;;;;14.80;12.32;;;15.80;65.40;;;;;;4192885;28;20052;-63
2023/01/29 06:28:01;;;;;;;12.88;11.55;;;15.80;64.60;;;;;;4191861;28;20051;-64
2023/01/29 06:30:42;;;;;;;15.38;12.02;;;15.80;64.80;;;;;;4191746;28;20050;-64
2023/01/29 06:33:23;;;;;;;19.13;12.93;;;15.70;64.90;;;;;;4182321;28;20051;-64
2023/01/29 06:36:06;;;;;;;14.95;12.77;;;15.60;65.20;;;;;;4192818;28;20055;-64
2023/01/29 06:38:47;;;;;;;19.30;13.25;;;15.60;65.30;;;;;;4193017;28;20052;-64
2023/01/29 06:41:28;;;;;;;18.17;14.57;;;15.70;65.20;;;;;;4176313;28;20399;-64
2023/01/29 06:44:09;;;;;;;19.98;13.48;;;15.70;65.10;;;;;;4192558;28;20051;-64
2023/01/29 06:46:50;;;;;;;15.30;13.32;;;15.70;65.30;;;;;;4192671;28;20051;-64
2023/01/29 06:49:31;;;;;;;16.00;12.95;;;15.70;65.10;;;;;;4192315;28;20506;-64
2023/01/29 06:52:13;;;;;;;16.42;12.70;;;15.80;65.00;;;;;;4192159;28;20051;-64
2023/01/29 06:54:54;;;;;;;15.45;13.25;;;15.80;64.80;;;;;;4164508;28;20052;-64
2023/01/29 06:57:35;;;;;;;15.98;13.23;;;15.80;64.70;;;;;;4175615;28;20044;-64
2023/01/29 07:00:17;;;;;;;16.08;12.85;;;15.80;64.70;;;;;;4192034;28;20051;-65
2023/01/29 07:02:58;;;;;;;17.40;13.43;;;15.70;64.80;;;;;;4192525;28;20047;-64
2023/01/29 07:05:39;;;;;;;20.17;12.88;;;15.70;65.60;;;;;;4183804;28;20055;-64
2023/01/29 07:08:21;;;;;;;16.80;12.87;;;15.70;65.70;;;;;;4192068;28;20518;-63
2023/01/29 07:11:03;;;;;;;18.27;13.73;;;15.70;65.30;;;;;;4185966;28;20129;-63
2023/01/29 07:13:44;;;;;;;18.17;12.93;;;15.80;65.20;;;;;;4182465;28;20407;-63
2023/01/29 07:16:25;;;;;;;16.38;13.65;;;15.80;65.20;;;;;;4192224;28;20063;-63
2023/01/29 07:19:06;;;;;;;16.42;13.80;;;15.80;65.00;;;;;;4175436;28;20105;-63
2023/01/29 07:21:47;;;;;;;16.48;13.68;;;15.90;64.80;;;;;;4177513;28;20089;-64
2023/01/29 07:24:29;;;;;;;17.02;14.10;;;16.00;64.40;;;;;;4191702;28;20059;-63
2023/01/29 07:27:10;;;;;;;15.32;13.55;;;16.10;64.10;;;;;;4192281;28;20126;-63
2023/01/29 07:29:51;;;;;;;18.90;14.00;;;16.20;63.80;;;;;;4175317;28;20507;-63
2023/01/29 07:32:32;;;;;;;18.90;14.52;;;16.30;63.70;;;;;;4163521;28;20044;-63
2023/01/29 07:35:13;;;;;;;16.42;14.70;;;16.40;63.20;;;;;;4193256;28;20052;-64
2023/01/29 07:37:54;;;;;;;17.85;14.07;;;16.40;62.90;;;;;;4195248;28;20055;-60
2023/01/29 07:40:37;;;;;;;16.88;14.00;;;16.50;63.60;;;;;;4194864;28;20059;-61
2023/01/29 07:43:17;;;;;;;18.13;14.00;;;16.50;62.50;;;;;;4195072;28;20502;-61
2023/01/29 07:46:02;;;;;;;17.38;13.85;;;16.40;62.40;;;;;;4195302;28;20052;-61
2023/01/29 07:48:43;;;;;;;14.15;12.45;;;16.40;62.50;;;;;;4194771;28;20059;-61
2023/01/29 07:51:24;;;;;;;14.23;12.73;;;16.50;62.50;;;;;;4193494;28;20091;-61
2023/01/29 07:54:05;;;;;;;15.57;13.27;;;16.50;62.30;;;;;;4195295;28;20050;-61
2023/01/29 07:56:47;;;;;;;14.82;13.25;;;16.60;62.20;;;;;;4178497;28;20542;-60
2023/01/29 07:59:28;;;;;;;15.55;13.88;;;16.60;61.70;;;;;;4194500;28;20055;-60
2023/01/29 08:02:09;;;;;;;15.93;13.35;;;16.60;61.50;;;;;;4194758;28;20059;-60
2023/01/29 08:04:50;;;;;;;17.50;11.88;;;16.60;61.60;;;;;;4181683;28;20057;-61
2023/01/29 08:07:31;;;;;;;17.50;12.77;;;16.50;61.60;;;;;;4183790;28;20453;-60
2023/01/29 08:10:13;;;;;;;14.68;13.23;;;16.50;61.40;;;;;;4194243;28;20070;-60
2023/01/29 08:12:59;;;;;;;16.03;10.77;;;16.50;61.00;;;;;;4194302;28;20056;-60
2023/01/29 08:15:43;;;;;;;18.02;12.13;;;16.50;60.50;;;;;;4193031;28;20632;-60
2023/01/29 08:18:24;;;;;;;16.60;11.05;;;16.50;60.10;;;;;;4194691;28;20071;-60
2023/01/29 08:21:05;;;;;;;14.73;12.87;;;16.40;59.60;;;;;;4177060;28;20155;-60
2023/01/29 08:23:46;;;;;;;15.23;12.10;;;16.40;59.00;;;;;;4194138;28;20297;-60
2023/01/29 08:26:27;;;;;;;15.07;12.02;;;16.30;58.90;;;;;;4179009;28;20051;-60
2023/01/29 08:29:10;;;;;;;14.80;12.80;;;16.30;58.90;;;;;;4177825;28;20454;-60
2023/01/29 08:31:51;;;;;;;17.17;13.07;;;16.30;58.60;;;;;;4177652;28;20198;-60
2023/01/29 08:34:32;;;;;;;16.17;13.77;;;16.30;59.00;;;;;;4193832;28;20121;-60
2023/01/29 08:37:13;;;;;;;13.25;10.60;;;16.30;58.00;;;;;;4194506;28;20059;-60
2023/01/29 08:39:54;;;;;;;14.85;13.25;;;16.20;57.80;;;;;;4193990;28;20051;-60
2023/01/29 08:42:35;;;;;;;17.50;11.90;;;16.20;58.00;;;;;;4185852;28;20507;-60
2023/01/29 08:45:17;;;;;;;10.70;6.90;;;16.20;57.80;;;;;;4178222;28;20102;-60
2023/01/29 08:47:58;;;;;;;15.07;11.90;;;16.20;57.60;;;;;;4194400;28;20114;-60
2023/01/29 08:50:39;;;;;;;14.15;9.82;;;16.10;57.50;;;;;;4193919;28;20542;-60
2023/01/29 08:53:23;;;;;;;16.88;12.80;;;16.00;57.60;;;;;;4165826;28;20051;-60
2023/01/29 08:56:04;;;;;;;16.90;12.82;;;16.00;57.60;;;;;;4194141;28;20051;-60
2023/01/29 08:58:45;;;;;;;13.02;9.93;;;16.00;57.50;;;;;;4183823;28;20517;-60
2023/01/29 09:01:27;;;;;;;19.70;12.45;;;16.00;57.40;;;;;;4189426;28;20051;-60
2023/01/29 09:04:08;;;;;;;17.08;13.80;;;15.90;57.40;;;;;;4193740;28;20048;-60
2023/01/29 09:06:49;;;;;;;14.67;12.57;;;15.90;57.40;;;;;;4193501;28;20582;-60
2023/01/29 09:09:30;;;;;;;15.40;12.63;;;15.80;57.60;;;;;;4183603;28;20297;-60
2023/01/29 09:12:11;;;;;;;15.68;11.75;;;15.80;57.70;;;;;;4193845;28;20052;-60
2023/01/29 09:14:52;;;;;;;16.58;13.90;;;15.80;57.60;;;;;;4184155;28;20059;-60
2023/01/29 09:17:35;;;;;;;13.85;9.02;;;15.80;57.40;;;;;;4176976;28;20055;-60
2023/01/29 09:20:17;;;;;;;15.07;11.82;;;15.80;57.40;;;;;;4188828;28;20502;-60
2023/01/29 09:22:58;;;;;;;;;;;15.80;57.30;;;;;;4194040;28;20183;-60
2023/01/29 09:25:39;;;;;;;15.73;13.88;;;15.80;57.30;;;;;;4185864;28;19932;-60
2023/01/29 09:28:20;;;;;;;19.85;12.18;;;15.70;57.20;;;;;;4179422;28;20056;-60
2023/01/29 09:31:02;;;;;;;12.25;9.70;;;15.70;57.40;;;;;;4193312;28;20134;-61
2023/01/29 09:33:44;;;;;;;19.38;14.68;;;15.60;57.50;;;;;;4193662;28;20047;-60
2023/01/29 09:36:25;;;;;;;16.77;13.05;;;15.50;57.70;;;;;;4193865;28;20056;-60
2023/01/29 09:39:06;;;;;;;17.27;15.27;;;15.50;57.80;;;;;;4193318;28;20066;-60
2023/01/29 09:41:56;;;;;;;19.38;15.52;;;15.50;58.00;;;;;;4193770;28;20051;-60
2023/01/29 09:44:53;;;;;;;18.38;15.13;;;15.50;58.10;;;;;;4193630;28;20044;-61
2023/01/29 09:47:36;;;;;;;17.95;14.90;;;15.70;58.40;;;;;;4187364;28;20052;-60
2023/01/29 09:50:23;;;;;;;18.27;14.20;;;16.00;58.00;;;;;;4190352;28;20690;-61
2023/01/29 09:53:14;;;;;;;23.05;15.73;;;16.40;57.30;;;;;;4186138;28;20060;-61
2023/01/29 09:56:02;;;;;;;19.17;15.52;;;16.90;56.70;;;;;;4159690;28;20197;-62
2023/01/29 09:58:44;;;;;;;21.38;16.10;;;17.40;55.60;;;;;;4188616;28;20055;-60
2023/01/29 10:01:32;;;;;;;18.40;15.85;;;17.90;54.50;;;;;;4192863;28;20063;-60
2023/01/29 10:04:28;;;;;;;20.98;14.75;;;18.40;53.30;;;;;;4192999;28;20056;-60
2023/01/29 10:07:28;;;;;;;18.60;15.23;;;18.80;52.30;;;;;;4191694;28;20056;-60
2023/01/29 10:10:26;;;;;;;19.38;15.30;;;19.20;51.70;;;;;;4183457;28;20051;-60
2023/01/29 10:13:16;;;;;;;20.15;15.95;;;19.40;51.00;;;;;;4176226;28;20056;-61
2023/01/29 10:16:18;;;;;;;20.30;15.65;;;19.50;50.80;;;;;;4161006;28;20060;-60
2023/01/29 10:19:42;;;;;;;22.08;16.10;;;19.40;51.00;;;;;;4190515;28;20055;-60
2023/01/29 10:23:00;;;;;;;18.40;15.48;;;19.20;52.20;;;;;;4191588;28;20587;-60
2023/01/29 10:25:41;;;;;;;19.17;13.93;;;18.90;52.30;;;;;;4192255;28;20051;-60
2023/01/29 10:28:28;;;;;;;22.25;15.63;;;18.80;52.80;;;;;;4187831;28;20102;-60
2023/01/29 10:31:15;;;;;;;19.02;14.63;;;18.70;52.90;;;;;;4176277;28;20048;-60
2023/01/29 10:34:00;;;;;;;21.17;16.70;;;18.70;53.10;;;;;;4182766;28;20138;-60
2023/01/29 10:36:45;;;;;;;21.13;14.85;;;18.70;53.20;;;;;;4171260;28;20187;-60
2023/01/29 10:39:30;;;;;;;19.80;15.77;;;18.70;53.30;;;;;;4175782;28;20134;-60
2023/01/29 10:42:25;;;;;;;21.48;16.23;;;18.70;53.60;;;;;;4180189;28;20079;-60
2023/01/29 10:45:20;;;;;;;21.83;15.57;;;18.60;53.70;;;;;;4191726;28;20059;-60
2023/01/29 10:48:49;;;;;;;19.40;15.15;;;18.50;53.90;;;;;;4192146;28;20043;-60
2023/01/29 10:51:52;;;;;;;19.77;16.27;;;18.40;54.60;;;;;;4191246;28;20230;-60
2023/01/29 10:54:50;;;;;;;21.70;16.63;;;18.30;55.20;;;;;;4191790;28;20055;-60
2023/01/29 10:57:49;;;;;;;19.60;15.88;;;18.30;55.40;;;;;;4191645;28;20757;-60
2023/01/29 11:00:35;;;;;;;19.95;15.50;;;18.40;55.50;;;;;;4175188;28;20400;-60
2023/01/29 11:03:18;;;;;;;18.40;15.35;;;18.40;55.50;;;;;;4188136;28;20059;-60
2023/01/29 11:06:17;;;;;;;20.40;16.90;;;18.50;55.50;;;;;;4173738;28;20067;-60
2023/01/29 11:09:06;;;;;;;26.50;15.90;;;18.60;55.20;;;;;;4185273;28;20578;-60
2023/01/29 11:11:54;;;;;;;21.75;16.77;;;18.70;55.10;;;;;;4192429;28;20415;-60
2023/01/29 11:14:44;;;;;;;19.98;16.05;;;18.80;54.90;;;;;;4175930;28;20051;-61
2023/01/29 11:17:26;;;;;;;18.45;15.63;;;18.90;54.80;;;;;;4175722;28;20130;-60
2023/01/29 11:20:27;;;;;;;20.88;16.45;;;19.00;55.00;;;;;;4176130;28;20060;-60
2023/01/29 11:23:25;;;;;;;20.50;15.90;;;19.00;54.90;;;;;;4189267;28;20816;-60
2023/01/29 11:26:09;;;;;;;19.67;16.02;;;19.00;55.00;;;;;;4186269;28;20556;-60
2023/01/29 11:28:52;;;;;;;19.30;16.42;;;18.90;55.10;;;;;;4185340;28;20175;-60
2023/01/29 11:31:38;;;;;;;19.40;15.75;;;18.90;55.20;;;;;;4191429;28;20067;-60
2023/01/29 11:34:23;;;;;;;16.38;13.73;;;18.80;55.40;;;;;;4174842;28;20047;-60
2023/01/29 11:37:15;;;;;;;19.55;15.90;;;18.70;55.70;;;;;;4191460;28;20109;-61
2023/01/29 11:39:56;;;;;;;18.48;14.60;;;18.60;56.10;;;;;;4175150;28;20526;-62
2023/01/29 11:42:37;;;;;;;20.75;15.80;;;18.60;56.40;;;;;;4192062;28;20048;-61
2023/01/29 11:45:28;;;;;;;18.00;14.48;;;18.60;56.80;;;;;;4179323;28;20095;-60
2023/01/29 11:48:16;;;;;;;19.60;14.90;;;18.70;56.80;;;;;;4171870;28;20059;-61
2023/01/29 11:51:00;;;;;;;18.63;14.60;;;18.70;56.70;;;;;;4175338;28;20118;-61
2023/01/29 11:53:43;;;;;;;19.20;15.55;;;18.80;56.80;;;;;;4178057;28;20065;-61
2023/01/29 11:56:29;;;;;;;16.90;14.00;;;18.80;56.60;;;;;;4179420;28;20059;-61
2023/01/29 11:59:28;;;;;;;16.73;13.77;;;18.80;56.50;;;;;;4191698;28;20050;-61
2023/01/29 12:02:32;;;;;;;17.00;13.95;;;18.70;56.50;;;;;;4191417;28;20075;-61
2023/01/29 12:05:16;;;;;;;18.15;14.52;;;18.60;57.10;;;;;;4181483;28;20055;-61
2023/01/29 12:07:59;;;;;;;15.73;12.90;;;18.60;57.40;;;;;;4192061;28;20048;-60
2023/01/29 12:10:42;;;;;;;15.95;13.82;;;18.60;57.50;;;;;;4183654;28;20055;-60
2023/01/29 12:13:27;;;;;;;17.10;14.27;;;18.60;57.40;;;;;;4191988;28;20419;-61
2023/01/29 12:16:21;;;;;;;16.65;13.75;;;18.60;57.40;;;;;;4191670;28;20137;-60
2023/01/29 12:19:14;;;;;;;18.88;14.20;;;18.60;57.40;;;;;;4194454;28;20056;-61
2023/01/29 12:22:00;;;;;;;15.30;13.23;;;18.60;57.70;;;;;;4194617;28;20117;-61
2023/01/29 12:24:50;;;;;;;17.33;13.20;;;18.60;57.90;;;;;;4193532;28;20509;-61
2023/01/29 12:27:38;;;;;;;17.17;14.25;;;18.60;57.90;;;;;;4194314;28;20148;-60
2023/01/29 12:30:25;;;;;;;14.93;13.30;;;18.60;58.00;;;;;;4194488;28;20118;-60
2023/01/29 12:33:14;;;;;;;14.65;12.80;;;18.60;58.00;;;;;;4192950;28;20052;-60
2023/01/29 12:36:02;;;;;;;19.30;13.43;;;18.60;58.00;;;;;;4194054;28;20051;-60
2023/01/29 12:38:44;;;;;;;16.90;14.18;;;18.70;57.90;;;;;;4177255;28;20052;-60
2023/01/29 12:41:31;;;;;;;16.67;14.57;;;18.80;57.60;;;;;;4194330;28;20585;-66
2023/01/29 12:44:19;;;;;;;15.95;13.30;;;18.80;57.60;;;;;;4178401;28;20400;-60
2023/01/29 12:47:04;;;;;;;16.65;13.23;;;18.70;58.40;;;;;;4194210;28;20097;-61
2023/01/29 12:49:50;;;;;;;16.13;13.45;;;18.70;58.00;;;;;;4194248;28;20052;-60
2023/01/29 12:52:41;;;;;;;16.15;13.80;;;18.60;57.90;;;;;;4194484;28;20064;-60
2023/01/29 12:55:26;;;;;;;15.45;13.05;;;18.70;57.90;;;;;;4177679;28;20122;-61
2023/01/29 12:58:12;;;;;;;14.40;12.93;;;18.70;58.10;;;;;;4178026;28;20838;-60
2023/01/29 13:00:56;;;;;;;14.68;12.88;;;18.70;58.00;;;;;;4182805;28;20055;-60
2023/01/29 13:03:49;;;;;;;14.27;12.18;;;18.70;58.30;;;;;;4193640;28;20059;-61
2023/01/29 13:06:33;;;;;;;17.00;13.05;;;18.70;58.00;;;;;;4193578;28;20070;-61
2023/01/29 13:09:21;;;;;;;17.27;12.00;;;18.70;57.90;;;;;;4193946;28;20064;-61
2023/01/29 13:12:07;;;;;;;15.80;12.90;;;18.70;57.90;;;;;;4171586;28;20599;-61
2023/01/29 13:14:51;;;;;;;13.55;11.57;;;18.60;58.10;;;;;;4177465;28;20118;-61
2023/01/29 13:17:36;;;;;;;12.55;11.25;;;18.60;58.50;;;;;;4186814;28;20056;-61
2023/01/29 13:20:21;;;;;;;14.07;12.57;;;18.60;58.60;;;;;;4193778;28;20121;-61
2023/01/29 13:23:20;;;;;;;14.05;11.98;;;18.50;58.50;;;;;;4191780;28;20118;-61
2023/01/29 13:26:02;;;;;;;14.52;11.95;;;18.40;58.70;;;;;;4176513;28;20749;-61
2023/01/29 13:28:45;;;;;;;16.38;12.57;;;18.40;59.00;;;;;;4187425;28;20138;-61
2023/01/29 13:31:33;;;;;;;14.55;11.57;;;18.40;59.00;;;;;;4183953;28;20052;-62
2023/01/29 13:34:16;;;;;;;16.15;13.20;;;18.40;59.10;;;;;;4180886;28;20056;-61
2023/01/29 13:37:00;;;;;;;13.63;12.00;;;18.40;59.20;;;;;;4175102;28;20094;-61
2023/01/29 13:39:48;;;;;;;14.23;12.73;;;18.30;60.00;;;;;;4176779;28;20064;-61
2023/01/29 13:42:40;;;;;;;13.95;12.45;;;18.30;59.40;;;;;;4180027;28;20506;-62
2023/01/29 13:45:22;;;;;;;;;;;18.20;59.70;;;;;;4193154;28;20143;-62
2023/01/29 13:48:12;;;;;;;15.10;12.07;;;18.10;60.00;;;;;;4191182;28;20490;-61
2023/01/29 13:50:55;;;;;;;13.65;12.05;;;18.00;60.20;;;;;;4186651;28;20052;-61
2023/01/29 13:53:40;;;;;;;13.80;12.40;;;18.00;60.50;;;;;;4193438;28;20047;-61
2023/01/29 13:56:43;;;;;;;14.27;12.77;;;17.90;60.70;;;;;;4176883;28;20094;-61
2023/01/29 13:59:49;;;;;;;14.70;12.77;;;17.90;60.90;;;;;;4175209;28;20052;-61
2023/01/29 14:02:31;;;;;;;13.38;11.68;;;17.90;61.10;;;;;;4183274;28;20051;-61
2023/01/29 14:05:38;;;;;;;13.00;11.13;;;18.00;60.80;;;;;;4184098;28;20105;-60
2023/01/29 14:08:38;;;;;;;13.82;12.43;;;18.10;60.50;;;;;;4186091;28;20048;-61
2023/01/29 14:11:35;;;;;;;12.07;10.88;;;18.10;60.00;;;;;;4184233;28;20091;-60
2023/01/29 14:14:49;;;;;;;13.30;11.27;;;18.10;60.40;;;;;;4183282;28;20174;-60
2023/01/29 14:17:31;;;;;;;12.45;11.18;;;18.20;60.30;;;;;;4183593;28;20411;-61
2023/01/29 14:20:18;;;;;;;13.20;11.85;;;18.20;60.00;;;;;;4184440;28;20122;-61
2023/01/29 14:23:02;;;;;;;13.35;11.23;;;18.30;59.70;;;;;;4183538;28;20099;-61
2023/01/29 14:25:42;;;;;;;13.85;12.45;;;18.30;59.80;;;;;;4183947;28;20522;-61
2023/01/29 14:28:28;;;;;;;12.90;11.43;;;18.30;60.00;;;;;;4183937;28;20068;-61
2023/01/29 14:31:11;;;;;;;14.25;12.75;;;18.20;60.10;;;;;;4183973;28;20538;-61
2023/01/29 14:33:53;;;;;;;12.02;10.82;;;18.20;60.30;;;;;;4184159;28;20514;-61